Time;durP1;ratioP1;P1;durP2;ratioP2;P2;SDS_P1;SDS_P2;PMS_P1;PMS_P2;Temp;Humidity;BMP_temperature;BMP_pressure;BME280_temperature;BME280_humidity;BME280_pressure;Samples;Min_cycle;Max_cycle;Signal;HPM_P1;HPM_P2
2023/05/08 00:01:31;;;;;;;5.70;4.20;;;;;;;5.47;82.29;99465.52;104531;1265;98855;-67
2023/05/08 00:03:58;;;;;;;4.90;2.90;;;;;;;5.44;82.27;99468.55;104573;1260;108630;-70
2023/05/08 00:06:29;;;;;;;4.70;3.20;;;;;;;5.44;82.78;99472.17;104530;1259;97941;-68
2023/05/08 00:08:56;;;;;;;4.70;3.40;;;;;;;5.41;81.91;99474.10;104811;1265;99123;-69
2023/05/08 00:11:23;;;;;;;5.20;3.80;;;;;;;5.39;82.18;99474.10;104863;1259;97943;-68
2023/05/08 00:13:50;;;;;;;5.50;4.30;;;;;;;5.37;82.14;99473.96;104530;1275;98071;-67
2023/05/08 00:16:17;;;;;;;4.00;2.60;;;;;;;5.36;82.30;99475.27;104567;1264;98017;-68
2023/05/08 00:18:44;;;;;;;4.10;2.80;;;;;;;5.34;81.76;99476.18;104661;1263;98047;-69
2023/05/08 00:21:11;;;;;;;3.90;2.90;;;;;;;5.34;81.59;99471.61;104483;1265;99785;-67
2023/05/08 00:23:38;;;;;;;3.50;2.80;;;;;;;5.34;81.60;99469.45;104587;1264;98050;-66
2023/05/08 00:26:04;;;;;;;4.00;2.40;;;;;;;5.33;81.45;99472.80;104684;1265;97957;-67
2023/05/08 00:28:31;;;;;;;3.60;2.40;;;;;;;5.27;80.86;99472.42;104575;1265;97980;-67
2023/05/08 00:31:00;;;;;;;4.00;2.50;;;;;;;5.22;81.02;99471.61;104699;1260;98037;-66
2023/05/08 00:33:27;;;;;;;4.00;2.70;;;;;;;5.20;81.27;99468.83;104461;1268;111934;-67
2023/05/08 00:36:02;;;;;;;3.10;1.60;;;;;;;5.19;81.21;99469.52;104581;1271;98525;-67
2023/05/08 00:38:31;;;;;;;3.10;2.50;;;;;;;5.18;81.25;99474.83;104459;1264;108284;-70
2023/05/08 00:41:00;;;;;;;3.20;2.00;;;;;;;5.17;81.56;99470.09;104646;1262;98356;-67
2023/05/08 00:43:28;;;;;;;4.80;2.60;;;;;;;5.13;81.59;99465.88;104537;1263;97923;-69
2023/05/08 00:45:57;;;;;;;3.40;2.30;;;;;;;5.11;81.57;99472.00;104719;1262;112417;-68
2023/05/08 00:48:29;;;;;;;3.40;2.60;;;;;;;5.09;81.72;99472.09;104330;1259;98829;-68
2023/05/08 00:50:57;;;;;;;4.50;3.10;;;;;;;5.07;81.77;99469.19;104530;1275;108659;-67
2023/05/08 00:53:25;;;;;;;3.50;2.30;;;;;;;5.03;81.22;99472.04;104811;1262;97918;-72
2023/05/08 00:55:52;;;;;;;3.80;2.80;;;;;;;5.00;81.05;99471.85;104733;1262;99107;-67
2023/05/08 00:58:21;;;;;;;3.40;1.90;;;;;;;5.01;81.34;99471.58;104661;1262;99066;-66
2023/05/08 01:00:51;;;;;;;5.90;3.10;;;;;;;4.97;81.47;99474.38;104653;1265;99182;-68
2023/05/08 01:03:18;;;;;;;3.60;2.00;;;;;;;4.97;81.68;99478.81;104550;1264;107567;-67
2023/05/08 01:05:45;;;;;;;3.60;2.80;;;;;;;4.98;81.00;99480.30;104819;1262;98011;-69
2023/05/08 01:08:12;;;;;;;4.00;3.10;;;;;;;5.01;81.18;99481.73;104810;1271;98814;-67
2023/05/08 01:10:43;;;;;;;3.60;2.50;;;;;;;5.06;81.56;99485.66;104690;1262;98432;-67
2023/05/08 01:13:22;;;;;;;3.70;2.60;;;;;;;5.07;81.40;99488.16;104816;1262;99488;-67
2023/05/08 01:16:14;;;;;;;4.20;3.10;;;;;;;5.07;81.57;99489.77;104783;1262;108176;-66
2023/05/08 01:18:49;;;;;;;3.80;2.60;;;;;;;5.06;81.60;99488.69;104525;1265;98064;-67
2023/05/08 01:21:22;;;;;;;5.30;3.00;;;;;;;5.04;81.76;99490.63;104609;1268;97984;-67
2023/05/08 01:24:14;;;;;;;5.50;3.20;;;;;;;5.02;82.09;99489.41;104423;1268;112457;-68
2023/05/08 01:27:06;;;;;;;2.80;2.40;;;;;;;4.98;82.21;99492.52;104850;1262;99283;-68
2023/05/08 01:29:58;;;;;;;3.50;2.20;;;;;;;4.93;82.44;99492.09;104728;1262;108409;-66
2023/05/08 01:32:36;;;;;;;3.60;2.70;;;;;;;4.92;82.56;99493.77;104730;1261;97965;-67
2023/05/08 01:35:17;;;;;;;3.70;2.90;;;;;;;4.94;82.77;99497.41;104357;1264;315071;-67
2023/05/08 01:38:09;;;;;;;5.30;2.40;;;;;;;4.93;82.91;99497.20;104604;1264;111113;-66
2023/05/08 01:40:43;;;;;;;4.80;3.50;;;;;;;4.89;83.15;99500.19;104607;1276;99235;-66
2023/05/08 01:43:17;;;;;;;5.40;3.50;;;;;;;4.87;83.49;99495.56;104589;1263;107326;-68
2023/05/08 01:45:47;;;;;;;5.60;4.00;;;;;;;4.85;83.75;99493.09;104764;1263;97936;-65
2023/05/08 01:48:34;;;;;;;5.90;3.90;;;;;;;4.83;83.83;99497.67;104739;1262;99244;-67
2023/05/08 01:51:13;;;;;;;3.70;2.00;;;;;;;4.83;83.91;99492.96;104642;1263;112204;-65
2023/05/08 01:53:44;;;;;;;5.00;3.30;;;;;;;4.82;84.05;99495.50;104768;1262;99172;-66
2023/05/08 01:56:15;;;;;;;4.90;3.30;;;;;;;4.82;84.00;99492.46;104761;1260;108501;-66
2023/05/08 01:58:43;;;;;;;5.90;3.40;;;;;;;4.81;84.34;99489.19;104550;1263;97916;-68
2023/05/08 02:01:13;;;;;;;4.90;2.70;;;;;;;4.78;84.39;99487.98;104874;1262;98008;-69
2023/05/08 02:03:43;;;;;;;5.70;3.80;;;;;;;4.75;84.50;99493.85;104552;1262;113047;-72
2023/05/08 02:06:13;;;;;;;6.10;4.20;;;;;;;4.76;84.52;99489.90;104891;1264;99192;-67
2023/05/08 02:08:42;;;;;;;5.50;3.80;;;;;;;4.80;84.39;99494.39;104834;1262;108128;-71
2023/05/08 02:11:11;;;;;;;5.20;3.00;;;;;;;4.83;84.46;99495.61;104841;1271;97911;-70
2023/05/08 02:13:40;;;;;;;4.20;3.00;;;;;;;4.84;84.27;99498.34;104820;1260;98015;-72
2023/05/08 02:16:09;;;;;;;4.80;3.40;;;;;;;4.83;84.40;99498.27;104748;1262;112415;-68
2023/05/08 02:18:39;;;;;;;5.20;3.10;;;;;;;4.82;84.35;99496.37;104617;1262;97934;-67
2023/05/08 02:21:08;;;;;;;7.50;3.70;;;;;;;4.80;84.48;99494.73;104525;1271;108231;-70
2023/05/08 02:23:36;;;;;;;4.20;2.40;;;;;;;4.77;84.43;99491.92;104785;1262;98601;-69
2023/05/08 02:26:04;;;;;;;5.80;3.90;;;;;;;4.78;84.36;99490.73;104488;1268;99706;-67
2023/05/08 02:28:32;;;;;;;7.10;3.90;;;;;;;4.81;84.45;99496.09;104622;1271;97959;-68
2023/05/08 02:31:00;;;;;;;4.60;3.70;;;;;;;4.85;84.39;99493.05;104814;1269;99163;-67
2023/05/08 02:33:28;;;;;;;4.80;3.60;;;;;;;4.87;84.16;99495.28;104812;1263;108611;-68
2023/05/08 02:35:57;;;;;;;3.10;2.10;;;;;;;4.88;83.88;99497.58;104861;1262;99245;-67
2023/05/08 02:38:25;;;;;;;3.10;2.20;;;;;;;4.87;84.14;99499.25;104563;1268;97913;-69
2023/05/08 02:40:57;;;;;;;4.90;2.90;;;;;;;4.86;84.10;99495.60;104870;1263;112087;-70
2023/05/08 02:43:24;;;;;;;4.10;2.50;;;;;;;4.81;84.14;99500.38;104576;1263;97984;-67
2023/05/08 02:45:56;;;;;;;8.10;3.50;;;;;;;4.80;84.15;99500.92;104827;1270;99201;-68
2023/05/08 02:48:40;;;;;;;4.50;3.30;;;;;;;4.83;84.04;99503.55;104791;1262;97911;-70
2023/05/08 02:51:38;;;;;;;5.40;3.50;;;;;;;4.85;83.89;99505.20;104819;1262;99130;-67
2023/05/08 02:54:36;;;;;;;4.10;2.80;;;;;;;4.86;83.61;99510.48;104634;1260;112492;-68
2023/05/08 02:57:20;;;;;;;3.80;2.90;;;;;;;4.86;83.77;99508.25;104641;1263;99205;-70
2023/05/08 03:00:08;;;;;;;5.30;3.10;;;;;;;4.87;83.51;99503.64;104718;1263;108234;-69
2023/05/08 03:02:47;;;;;;;4.30;3.10;;;;;;;4.85;83.37;99503.41;104607;1264;98014;-69
2023/05/08 03:05:23;;;;;;;5.20;2.60;;;;;;;4.84;83.47;99505.84;104792;1261;98435;-72
2023/05/08 03:07:53;;;;;;;5.00;2.60;;;;;;;4.83;83.54;99510.17;104563;1262;112238;-67
2023/05/08 03:10:25;;;;;;;3.50;2.80;;;;;;;4.82;83.45;99513.52;104628;1260;98986;-71
2023/05/08 03:12:55;;;;;;;4.00;2.90;;;;;;;4.85;83.65;99512.81;104641;1270;108676;-67
2023/05/08 03:15:30;;;;;;;5.70;2.90;;;;;;;4.84;83.62;99512.48;104531;1272;97903;-66
2023/05/08 03:18:02;;;;;;;4.60;3.10;;;;;;;4.86;83.43;99517.66;104746;1262;98437;-66
2023/05/08 03:20:34;;;;;;;3.80;2.40;;;;;;;4.88;83.45;99518.39;104564;1263;112269;-65
2023/05/08 03:23:03;;;;;;;4.00;2.40;;;;;;;4.88;83.35;99520.77;104731;1272;99044;-70
2023/05/08 03:25:33;;;;;;;5.90;3.20;;;;;;;4.91;83.35;99518.36;104378;1276;107093;-69
2023/05/08 03:28:03;;;;;;;3.00;2.30;;;;;;;4.89;82.97;99516.98;104828;1272;98119;-67
2023/05/08 03:30:31;;;;;;;5.40;2.90;;;;;;;4.87;83.14;99526.41;104685;1273;97908;-66
2023/05/08 03:33:00;;;;;;;5.70;3.40;;;;;;;4.82;82.96;99527.54;104591;1264;112058;-67
2023/05/08 03:35:27;;;;;;;3.80;2.30;;;;;;;4.82;83.12;99526.50;104794;1270;99245;-68
2023/05/08 03:37:54;;;;;;;5.10;3.10;;;;;;;4.82;83.16;99528.42;104802;1271;97946;-68
2023/05/08 03:40:22;;;;;;;5.00;3.10;;;;;;;4.87;83.17;99525.10;104614;1271;98018;-67
2023/05/08 03:42:50;;;;;;;4.60;2.80;;;;;;;4.88;83.08;99522.23;104773;1263;98043;-68
2023/05/08 03:45:18;;;;;;;5.70;3.40;;;;;;;4.88;83.25;99521.22;104638;1263;98893;-67
2023/05/08 03:47:45;;;;;;;4.60;2.60;;;;;;;4.89;83.36;99520.40;104613;1276;97954;-71
2023/05/08 03:50:13;;;;;;;3.00;2.20;;;;;;;4.86;82.67;99518.95;104729;1264;99203;-69
2023/05/08 03:52:41;;;;;;;4.10;2.70;;;;;;;4.83;82.42;99524.14;104559;1262;97913;-69
2023/05/08 03:55:08;;;;;;;5.20;2.80;;;;;;;4.81;82.38;99523.45;104607;1268;98332;-69
2023/05/08 03:58:15;;;;;;;5.50;2.30;;;;;;;4.80;82.57;99525.46;104821;1260;97923;-69
2023/05/08 04:01:05;;;;;;;3.20;2.30;;;;;;;4.82;82.86;99523.42;104748;1260;99250;-67
2023/05/08 04:04:09;;;;;;;6.30;3.20;;;;;;;4.81;82.69;99527.70;104829;1262;108524;-66
2023/05/08 04:06:48;;;;;;;3.90;2.50;;;;;;;4.80;82.89;99531.40;104645;1273;97957;-66
2023/05/08 04:09:43;;;;;;;4.40;3.40;;;;;;;4.77;83.19;99534.29;104741;1264;98741;-67
2023/05/08 04:12:18;;;;;;;4.30;2.90;;;;;;;4.79;83.22;99537.39;104620;1266;112144;-66
2023/05/08 04:14:54;;;;;;;5.60;3.60;;;;;;;4.78;83.11;99540.11;104710;1262;98875;-67
2023/05/08 04:17:38;;;;;;;5.50;3.80;;;;;;;4.79;82.87;99540.73;104787;1263;108613;-66
2023/05/08 04:20:11;;;;;;;6.90;4.10;;;;;;;4.80;82.84;99544.15;104606;1260;98016;-68
2023/05/08 04:22:39;;;;;;;5.60;3.10;;;;;;;4.82;82.98;99544.27;104484;1271;98002;-66
2023/05/08 04:25:08;;;;;;;6.80;4.10;;;;;;;4.82;82.89;99550.20;104703;1262;112114;-66
2023/05/08 04:27:36;;;;;;;4.40;2.50;;;;;;;4.83;83.00;99549.61;104772;1262;99504;-66
2023/05/08 04:30:04;;;;;;;6.60;4.40;;;;;;;4.83;82.76;99557.55;104779;1262;108460;-66
2023/05/08 04:32:33;;;;;;;5.20;4.60;;;;;;;4.88;82.81;99560.05;104682;1263;98826;-67
2023/05/08 04:35:01;;;;;;;7.10;4.10;;;;;;;4.93;82.42;99562.39;104433;1266;99822;-65
2023/05/08 04:37:30;;;;;;;4.70;3.30;;;;;;;4.93;82.44;99564.19;104475;1270;111355;-66
2023/05/08 04:39:58;;;;;;;4.70;3.80;;;;;;;4.93;82.57;99572.16;104537;1263;99324;-66
2023/05/08 04:42:26;;;;;;;5.30;3.40;;;;;;;4.91;82.38;99571.48;104485;1273;108478;-65
2023/05/08 04:44:53;;;;;;;6.30;4.30;;;;;;;4.86;82.20;99575.39;104533;1265;99100;-66
2023/05/08 04:47:21;;;;;;;5.40;3.40;;;;;;;4.88;82.44;99580.48;104749;1262;98411;-69
2023/05/08 04:49:50;;;;;;;3.90;3.00;;;;;;;4.91;82.32;99582.36;104466;1273;111311;-70
2023/05/08 04:52:16;;;;;;;4.20;3.00;;;;;;;4.92;81.32;99582.80;104626;1266;99326;-69
2023/05/08 04:54:43;;;;;;;3.20;2.50;;;;;;;4.89;81.08;99583.36;104888;1264;98597;-67
2023/05/08 04:57:10;;;;;;;6.60;3.40;;;;;;;4.90;81.29;99582.73;104805;1271;97962;-71
2023/05/08 04:59:37;;;;;;;5.70;3.60;;;;;;;4.92;81.43;99586.98;104687;1264;97922;-69
2023/05/08 05:02:06;;;;;;;4.90;3.50;;;;;;;4.94;81.60;99587.11;104720;1271;97938;-69
2023/05/08 05:04:35;;;;;;;5.00;3.70;;;;;;;4.93;81.21;99585.65;104672;1266;99230;-69
2023/05/08 05:07:03;;;;;;;5.00;3.60;;;;;;;4.99;81.63;99585.11;104555;1264;108809;-70
2023/05/08 05:09:30;;;;;;;5.40;3.90;;;;;;;5.09;81.17;99588.96;104757;1278;99212;-69
2023/05/08 05:11:57;;;;;;;5.80;3.40;;;;;;;5.13;80.92;99589.56;104577;1260;97932;-71
2023/05/08 05:14:24;;;;;;;4.10;2.80;;;;;;;5.14;80.36;99591.21;104562;1271;97925;-69
2023/05/08 05:16:51;;;;;;;3.90;2.90;;;;;;;5.13;80.15;99590.70;104747;1260;97908;-67
2023/05/08 05:19:18;;;;;;;4.00;2.70;;;;;;;5.11;79.47;99596.55;104606;1271;97903;-66
2023/05/08 05:21:45;;;;;;;2.70;2.00;;;;;;;5.09;79.50;99600.66;104865;1273;97957;-67
2023/05/08 05:24:12;;;;;;;4.50;2.60;;;;;;;5.11;79.49;99599.23;104624;1260;98342;-66
2023/05/08 05:26:40;;;;;;;4.50;2.70;;;;;;;5.13;78.90;99600.16;104664;1271;97902;-66
2023/05/08 05:29:07;;;;;;;2.40;1.60;;;;;;;5.18;78.90;99603.36;104740;1267;97938;-67
2023/05/08 05:31:34;;;;;;;3.50;2.30;;;;;;;5.26;78.99;99606.83;104528;1271;97912;-68
2023/05/08 05:34:01;;;;;;;4.10;2.80;;;;;;;5.30;78.25;99611.05;104840;1271;98617;-66
2023/05/08 05:36:29;;;;;;;3.00;2.20;;;;;;;5.34;78.15;99606.21;104604;1267;110902;-67
2023/05/08 05:38:56;;;;;;;4.90;2.20;;;;;;;5.32;76.71;99615.38;104750;1262;99806;-65
2023/05/08 05:41:23;;;;;;;3.40;2.00;;;;;;;5.21;76.11;99618.67;104845;1273;99272;-66
2023/05/08 05:43:50;;;;;;;3.90;2.40;;;;;;;5.19;76.32;99614.30;104763;1281;97934;-66
2023/05/08 05:46:17;;;;;;;3.20;2.60;;;;;;;5.19;76.66;99619.41;104659;1274;97920;-68
2023/05/08 05:48:44;;;;;;;3.50;2.30;;;;;;;5.25;76.82;99624.58;104767;1262;98008;-69
2023/05/08 05:51:11;;;;;;;4.00;2.60;;;;;;;5.30;76.93;99622.26;104627;1271;99139;-66
2023/05/08 05:53:38;;;;;;;2.80;2.20;;;;;;;5.35;76.55;99627.10;104885;1260;99292;-66
2023/05/08 05:56:06;;;;;;;2.60;1.70;;;;;;;5.34;75.82;99634.69;104850;1262;97911;-67
2023/05/08 05:58:39;;;;;;;3.50;2.20;;;;;;;5.32;75.35;99636.25;104841;1262;98389;-66
2023/05/08 06:01:06;;;;;;;3.20;2.40;;;;;;;5.41;75.75;99634.70;104634;1274;112600;-66
2023/05/08 06:03:33;;;;;;;2.90;1.70;;;;;;;5.46;74.63;99637.21;104644;1264;98859;-65
2023/05/08 06:06:00;;;;;;;2.30;2.10;;;;;;;5.47;74.63;99640.20;104824;1273;97936;-68
2023/05/08 06:08:27;;;;;;;2.40;1.50;;;;;;;5.46;73.93;99646.79;104515;1271;97937;-74
2023/05/08 06:10:53;;;;;;;2.70;2.20;;;;;;;5.44;73.89;99647.31;104840;1263;98080;-68
2023/05/08 06:13:20;;;;;;;7.20;4.00;;;;;;;5.51;74.64;99644.73;104755;1262;97915;-69
2023/05/08 06:15:49;;;;;;;2.80;1.90;;;;;;;5.64;74.49;99652.30;104845;1264;99182;-68
2023/05/08 06:18:16;;;;;;;3.10;2.30;;;;;;;5.71;73.97;99656.61;104521;1266;98003;-69
2023/05/08 06:20:43;;;;;;;3.10;2.30;;;;;;;5.68;73.60;99653.75;104598;1271;97923;-68
2023/05/08 06:23:10;;;;;;;5.70;1.90;;;;;;;5.74;73.23;99661.77;104886;1272;98001;-65
2023/05/08 06:25:37;;;;;;;3.40;2.20;;;;;;;5.68;73.00;99655.45;104699;1264;97969;-68
2023/05/08 06:28:06;;;;;;;4.40;2.40;;;;;;;5.70;73.25;99657.36;104937;1270;98004;-69
2023/05/08 06:30:33;;;;;;;3.10;2.20;;;;;;;5.78;73.40;99658.69;104621;1264;99090;-68
2023/05/08 06:33:00;;;;;;;2.30;1.60;;;;;;;5.82;72.40;99660.16;104536;1263;98655;-68
2023/05/08 06:35:28;;;;;;;3.00;1.60;;;;;;;5.84;71.92;99662.08;104696;1273;97928;-66
2023/05/08 06:37:54;;;;;;;2.90;1.90;;;;;;;5.94;72.10;99667.56;104848;1266;99228;-66
2023/05/08 06:40:22;;;;;;;1.90;1.70;;;;;;;5.96;71.42;99665.44;104807;1271;97912;-68
2023/05/08 06:42:49;;;;;;;1.80;1.60;;;;;;;5.99;71.32;99667.16;104883;1273;98071;-66
2023/05/08 06:45:16;;;;;;;2.80;2.40;;;;;;;5.98;70.99;99673.18;104788;1263;99241;-69
2023/05/08 06:47:43;;;;;;;2.70;1.60;;;;;;;6.09;71.24;99670.44;104796;1271;98401;-67
2023/05/08 06:50:10;;;;;;;2.30;1.90;;;;;;;6.14;70.26;99672.16;104702;1262;97914;-66
2023/05/08 06:52:37;;;;;;;2.10;1.60;;;;;;;6.17;70.56;99677.96;104752;1261;98967;-68
2023/05/08 06:55:05;;;;;;;6.00;2.40;;;;;;;6.17;69.77;99680.85;104726;1271;98011;-66
2023/05/08 06:57:32;;;;;;;3.10;2.20;;;;;;;6.15;69.94;99674.67;104465;1273;112193;-67
2023/05/08 06:59:59;;;;;;;4.40;2.20;;;;;;;6.22;70.03;99678.49;104787;1270;97920;-66
2023/05/08 07:02:26;;;;;;;3.00;2.20;;;;;;;6.31;69.48;99681.88;104772;1271;99561;-68
2023/05/08 07:04:53;;;;;;;2.10;1.90;;;;;;;6.33;69.37;99685.77;104663;1271;97959;-67
2023/05/08 07:07:20;;;;;;;2.50;1.70;;;;;;;6.36;68.93;99689.66;104519;1263;97954;-67
2023/05/08 07:09:48;;;;;;;2.00;1.70;;;;;;;6.38;69.15;99689.30;104596;1272;97964;-67
2023/05/08 07:12:15;;;;;;;2.60;1.70;;;;;;;6.43;68.51;99689.05;104777;1271;98389;-69
2023/05/08 07:14:42;;;;;;;2.20;1.80;;;;;;;6.46;68.75;99697.04;104766;1271;99248;-66
2023/05/08 07:17:09;;;;;;;3.10;2.30;;;;;;;6.54;68.51;99697.58;104647;1267;98012;-69
2023/05/08 07:19:37;;;;;;;3.40;2.00;;;;;;;6.52;67.42;99698.16;104650;1263;97934;-67
2023/05/08 07:22:05;;;;;;;3.60;2.70;;;;;;;6.36;67.61;99697.46;104619;1271;99302;-68
2023/05/08 07:24:32;;;;;;;2.20;1.70;;;;;;;6.43;68.46;99702.13;104577;1271;98354;-67
2023/05/08 07:27:00;;;;;;;2.10;1.50;;;;;;;6.38;68.15;99701.16;104630;1263;97960;-67
2023/05/08 07:29:27;;;;;;;2.60;1.80;;;;;;;6.27;68.18;99700.52;104676;1281;97976;-66
2023/05/08 07:31:55;;;;;;;4.00;2.10;;;;;;;6.17;68.48;99704.52;104542;1271;97940;-67
2023/05/08 07:34:22;;;;;;;3.70;2.90;;;;;;;6.18;69.03;99704.05;104803;1271;98856;-68
2023/05/08 07:36:49;;;;;;;4.80;2.60;;;;;;;6.24;68.91;99708.14;104797;1271;97934;-66
2023/05/08 07:39:16;;;;;;;3.50;2.00;;;;;;;6.27;67.86;99708.54;104762;1273;97943;-69
2023/05/08 07:41:44;;;;;;;2.80;2.30;;;;;;;6.28;68.15;99709.58;104708;1263;98020;-70
2023/05/08 07:44:15;;;;;;;3.00;2.40;;;;;;;6.30;68.43;99708.94;104785;1274;97918;-66
2023/05/08 07:46:42;;;;;;;2.70;1.60;;;;;;;6.41;68.63;99711.31;104788;1266;97911;-66
2023/05/08 07:49:10;;;;;;;2.30;1.70;;;;;;;6.55;68.55;99714.20;104833;1264;97940;-67
2023/05/08 07:51:38;;;;;;;2.60;1.90;;;;;;;6.56;67.59;99717.52;104469;1264;107692;-66
2023/05/08 07:54:05;;;;;;;3.30;2.20;;;;;;;6.55;68.21;99717.48;104562;1266;98022;-69
2023/05/08 07:56:32;;;;;;;8.20;5.00;;;;;;;6.63;68.26;99717.32;104507;1264;97932;-67
2023/05/08 07:58:59;;;;;;;4.20;2.40;;;;;;;6.79;67.76;99722.05;104438;1278;97953;-69
2023/05/08 08:01:27;;;;;;;4.30;2.10;;;;;;;6.93;65.89;99717.52;104648;1263;97908;-69
2023/05/08 08:03:53;;;;;;;2.70;1.80;;;;;;;6.90;66.00;99716.75;104727;1270;97921;-65
2023/05/08 08:06:21;;;;;;;5.80;4.10;;;;;;;6.94;66.09;99714.36;104555;1263;99302;-67
2023/05/08 08:08:48;;;;;;;4.10;2.80;;;;;;;6.93;66.00;99715.39;104682;1271;98028;-68
2023/05/08 08:11:15;;;;;;;4.30;2.90;;;;;;;7.02;66.14;99716.04;104599;1271;98400;-65
2023/05/08 08:13:42;;;;;;;3.80;2.20;;;;;;;7.15;65.56;99712.61;104737;1261;99234;-65
2023/05/08 08:16:09;;;;;;;3.50;2.90;;;;;;;7.24;65.41;99725.53;104718;1274;97925;-66
2023/05/08 08:18:37;;;;;;;4.00;2.70;;;;;;;7.34;65.54;99728.10;104743;1263;97921;-66
2023/05/08 08:21:05;;;;;;;3.30;2.30;;;;;;;7.44;65.44;99732.17;104779;1263;99247;-66
2023/05/08 08:23:33;;;;;;;2.80;2.30;;;;;;;7.38;64.59;99723.30;104882;1271;99218;-72
2023/05/08 08:26:00;;;;;;;7.30;2.40;;;;;;;7.25;64.27;99719.41;104886;1270;98030;-65
2023/05/08 08:28:28;;;;;;;2.80;2.10;;;;;;;7.27;64.88;99730.02;104912;1273;98033;-66
2023/05/08 08:30:55;;;;;;;3.90;2.20;;;;;;;7.46;63.42;99731.14;104817;1268;98017;-66
2023/05/08 08:33:23;;;;;;;2.00;1.80;;;;;;;7.77;63.00;99723.94;104835;1263;98837;-67
2023/05/08 08:35:50;;;;;;;1.90;1.60;;;;;;;8.10;62.20;99726.63;104889;1264;98315;-67
2023/05/08 08:38:17;;;;;;;3.60;2.30;;;;;;;8.33;61.82;99721.24;104597;1273;98013;-66
2023/05/08 08:40:45;;;;;;;1.30;1.20;;;;;;;8.48;60.85;99725.02;104719;1261;97937;-67
2023/05/08 08:43:12;;;;;;;4.20;2.30;;;;;;;8.49;60.20;99722.06;104864;1271;97919;-66
2023/05/08 08:45:40;;;;;;;5.00;3.60;;;;;;;8.66;60.21;99718.27;104493;1264;99225;-66
2023/05/08 08:48:13;;;;;;;4.70;2.50;;;;;;;8.95;59.60;99722.53;104422;1273;98032;-66
2023/05/08 08:50:45;;;;;;;10.20;2.30;;;;;;;9.09;57.79;99731.85;104524;1267;98312;-67
2023/05/08 08:53:20;;;;;;;4.60;2.50;;;;;;;8.92;57.83;99730.37;104517;1266;107696;-75
2023/05/08 08:55:51;;;;;;;2.90;2.30;;;;;;;8.83;58.71;99734.15;104626;1264;97925;-67
2023/05/08 08:58:32;;;;;;;;;;;;;;;8.95;58.79;99732.83;104619;1273;98001;-71
2023/05/08 09:01:02;;;;;;;7.20;4.50;;;;;;;9.08;58.95;99733.83;104583;1263;111591;-68
2023/05/08 09:03:31;;;;;;;3.30;2.70;;;;;;;9.17;59.03;99733.98;104800;1262;99393;-69
2023/05/08 09:06:02;;;;;;;5.10;2.90;;;;;;;9.21;59.17;99738.07;104711;1264;108572;-67
2023/05/08 09:08:30;;;;;;;2.60;2.20;;;;;;;9.24;58.50;99741.77;104575;1273;97970;-67
2023/05/08 09:11:01;;;;;;;3.10;2.20;;;;;;;9.01;58.59;99741.02;104711;1267;98037;-68
2023/05/08 09:13:28;;;;;;;8.30;2.20;;;;;;;8.93;58.88;99739.44;104545;1276;111965;-66
2023/05/08 09:16:00;;;;;;;3.60;2.40;;;;;;;8.98;59.01;99744.67;104898;1263;99117;-69
2023/05/08 09:18:27;;;;;;;4.40;1.80;;;;;;;9.23;59.19;99741.77;104804;1263;108584;-68
2023/05/08 09:20:55;;;;;;;4.70;3.30;;;;;;;9.29;57.89;99739.80;104530;1262;97893;-67
2023/05/08 09:23:22;;;;;;;2.00;1.80;;;;;;;9.43;57.52;99743.91;104657;1270;98008;-66
2023/05/08 09:25:49;;;;;;;3.50;2.60;;;;;;;9.39;56.71;99746.10;104786;1263;99222;-70
2023/05/08 09:28:21;;;;;;;6.20;3.90;;;;;;;9.12;57.00;99744.76;104905;1271;98005;-73
2023/05/08 09:30:51;;;;;;;5.80;3.60;;;;;;;8.89;57.93;99749.66;104817;1274;106962;-68
2023/05/08 09:33:20;;;;;;;6.20;2.60;;;;;;;8.92;58.61;99744.58;104591;1271;99227;-66
2023/05/08 09:35:48;;;;;;;6.20;3.70;;;;;;;8.93;57.79;99745.67;104890;1271;98616;-72
2023/05/08 09:38:40;;;;;;;4.70;2.80;;;;;;;8.91;57.94;99743.86;104719;1263;112425;-68
2023/05/08 09:41:10;;;;;;;4.80;3.00;;;;;;;8.88;58.65;99748.91;104883;1264;99516;-65
2023/05/08 09:43:37;;;;;;;5.20;2.20;;;;;;;8.75;58.83;99743.77;104542;1276;105671;-64
2023/05/08 09:46:21;;;;;;;8.80;5.40;;;;;;;8.70;58.46;99748.38;104893;1273;98209;-65
2023/05/08 09:48:49;;;;;;;3.00;1.90;;;;;;;8.66;58.32;99742.14;104747;1261;97909;-65
2023/05/08 09:51:17;;;;;;;6.00;3.40;;;;;;;8.73;58.28;99739.79;104385;1270;110741;-65
2023/05/08 09:53:44;;;;;;;12.10;6.10;;;;;;;8.88;58.43;99736.92;104798;1262;99123;-65
2023/05/08 09:56:11;;;;;;;6.10;3.30;;;;;;;9.07;58.55;99734.83;104883;1264;97995;-64
2023/05/08 09:58:41;;;;;;;3.80;2.50;;;;;;;9.19;58.39;99730.96;104747;1263;97997;-64
2023/05/08 10:01:28;;;;;;;3.30;2.20;;;;;;;9.09;58.55;99731.69;104825;1264;98178;-64
2023/05/08 10:03:55;;;;;;;5.20;3.00;;;;;;;9.12;58.13;99738.08;104584;1267;111435;-65
2023/05/08 10:06:22;;;;;;;9.10;4.10;;;;;;;9.28;57.71;99730.70;104865;1267;97954;-65
2023/05/08 10:09:09;;;;;;;11.10;4.80;;;;;;;9.35;57.83;99730.91;104586;1273;98011;-64
2023/05/08 10:11:37;;;;;;;6.60;4.20;;;;;;;9.34;57.18;99730.81;104749;1264;99212;-66
2023/05/08 10:14:05;;;;;;;4.50;2.60;;;;;;;9.23;57.04;99732.05;104638;1271;99548;-68
2023/05/08 10:16:41;;;;;;;3.70;2.40;;;;;;;8.95;56.64;99731.12;104694;1264;112271;-74
2023/05/08 10:19:13;;;;;;;5.40;2.30;;;;;;;8.75;57.58;99729.08;104607;1265;99669;-66
2023/05/08 10:21:47;;;;;;;2.80;2.40;;;;;;;8.68;57.86;99726.85;104850;1271;107579;-67
2023/05/08 10:24:19;;;;;;;6.90;3.80;;;;;;;8.78;58.45;99723.39;104585;1264;97998;-66
2023/05/08 10:27:04;;;;;;;8.30;4.50;;;;;;;9.13;57.72;99721.72;104596;1269;98055;-65
2023/05/08 10:29:44;;;;;;;8.00;3.90;;;;;;;9.21;57.35;99711.48;104884;1264;112188;-67
2023/05/08 10:32:18;;;;;;;4.80;2.50;;;;;;;9.33;57.10;99721.93;104552;1265;99058;-69
2023/05/08 10:34:51;;;;;;;4.20;2.80;;;;;;;9.77;56.67;99707.17;104847;1264;108669;-65
2023/05/08 10:37:19;;;;;;;4.90;3.70;;;;;;;10.36;55.86;99709.48;104611;1271;97970;-66
2023/05/08 10:39:47;;;;;;;5.00;2.50;;;;;;;10.51;53.67;99709.71;104838;1264;98437;-66
2023/05/08 10:42:15;;;;;;;2.70;2.20;;;;;;;10.69;53.69;99710.80;104859;1264;112178;-66
2023/05/08 10:44:43;;;;;;;2.60;2.10;;;;;;;10.78;52.56;99711.67;104795;1264;99390;-69
2023/05/08 10:47:27;;;;;;;6.30;3.10;;;;;;;11.09;52.64;99711.40;104518;1267;108181;-65
2023/05/08 10:50:17;;;;;;;2.50;1.40;;;;;;;11.28;51.50;99703.39;104682;1273;98082;-66
2023/05/08 10:53:33;;;;;;;3.90;2.10;;;;;;;11.27;50.71;99697.77;104394;1261;97892;-68
2023/05/08 10:56:00;;;;;;;4.10;2.30;;;;;;;11.57;50.28;99703.21;104051;1270;111759;-65
2023/05/08 10:58:28;;;;;;;3.40;2.40;;;;;;;12.01;50.49;99699.10;104286;1268;99390;-67
2023/05/08 11:01:05;;;;;;;3.00;2.20;;;;;;;12.38;49.62;99705.63;104086;1281;106298;-67
2023/05/08 11:03:42;;;;;;;2.80;2.10;;;;;;;12.18;49.69;99705.85;104082;1270;97989;-66
2023/05/08 11:06:11;;;;;;;3.40;2.10;;;;;;;12.03;49.62;99710.05;104189;1270;98278;-65
2023/05/08 11:08:50;;;;;;;4.50;2.30;;;;;;;11.80;49.71;99707.73;104250;1275;112371;-72
2023/05/08 11:11:25;;;;;;;3.70;2.60;;;;;;;11.59;50.05;99709.60;104149;1273;99248;-65
2023/05/08 11:13:54;;;;;;;3.50;2.50;;;;;;;11.35;50.24;99708.81;104307;1270;108648;-64
2023/05/08 11:16:55;;;;;;;7.40;4.50;;;;;;;10.99;50.83;99709.77;104303;1277;99049;-65
2023/05/08 11:19:23;;;;;;;7.30;4.20;;;;;;;10.69;51.72;99705.77;104333;1275;98077;-64
2023/05/08 11:22:15;;;;;;;3.80;2.10;;;;;;;10.59;52.92;99697.59;104365;1268;113211;-64
2023/05/08 11:24:55;;;;;;;4.10;2.30;;;;;;;10.40;52.49;99700.13;104418;1277;99155;-64
2023/05/08 11:27:35;;;;;;;5.60;3.90;;;;;;;10.23;53.28;99695.44;104376;1268;108190;-65
2023/05/08 11:30:42;;;;;;;3.90;2.70;;;;;;;10.24;53.68;99691.43;103997;1273;98083;-64
2023/05/08 11:33:10;;;;;;;6.80;2.60;;;;;;;10.67;52.24;99687.70;104478;1263;97948;-66
2023/05/08 11:36:15;;;;;;;2.90;2.40;;;;;;;10.95;50.75;99682.30;104615;1274;99133;-70
2023/05/08 11:38:43;;;;;;;4.70;3.20;;;;;;;10.97;50.20;99688.33;104564;1266;97963;-67
2023/05/08 11:41:20;;;;;;;9.00;4.20;;;;;;;11.17;50.37;99687.17;104824;1263;108488;-65
2023/05/08 11:44:21;;;;;;;4.80;3.20;;;;;;;11.40;49.70;99689.59;104507;1263;97997;-66
2023/05/08 11:46:54;;;;;;;5.70;3.20;;;;;;;11.56;49.51;99684.07;104238;1270;98041;-72
2023/05/08 11:49:23;;;;;;;3.50;2.20;;;;;;;11.84;49.81;99680.86;104195;1266;112452;-74
2023/05/08 11:51:58;;;;;;;3.00;2.20;;;;;;;11.88;49.04;99680.38;104219;1280;98346;-71